.
WxDataArchive / Data Records for 2011-04-24
2011-04-23 April 2011 2011-04-25

Data Records for Sunday, 24 April 2011

Time	Temp	Chill	HIndex	Humid	Dewpt	 Wind 	HiWind	WindDir	Rain 	Barom 
-----	----	-----	------	-----	-----	------	------	-------	-----	----- 
00:00	55.0	55.0	55.0	65	43.5	0	1	0	0.00	29.971 
00:05	54.8	54.8	54.8	65	43.3	0	1	0	0.00	29.971 
00:10	54.5	54.5	54.5	66	43.4	0	0	---	0.00	29.971 
00:15	54.4	54.4	54.4	66	43.3	0	1	0	0.00	29.972 
00:20	54.1	54.1	54.1	67	43.4	0	0	---	0.00	29.972 
00:25	53.8	53.8	53.8	68	43.5	0	0	---	0.00	29.972 
00:30	53.6	53.6	53.6	68	43.3	0	0	---	0.00	29.986 
00:35	53.5	53.5	53.5	69	43.6	0	0	---	0.00	29.986 
00:40	53.3	53.3	53.3	69	43.4	0	0	---	0.00	29.986 
00:45	53.2	53.2	53.2	70	43.7	0	0	---	0.00	29.985 
00:50	53.2	53.2	53.2	69	43.3	0	0	---	0.00	29.985 
00:55	53.2	53.2	53.2	69	43.3	0	0	---	0.00	29.985 
01:00	53.2	53.2	53.2	69	43.3	0	1	0	0.00	29.983 
01:05	53.3	53.3	53.3	69	43.4	0	1	0	0.00	29.983 
01:10	53.3	53.3	53.3	69	43.4	0	0	---	0.00	29.983 
01:15	53.2	53.2	53.2	69	43.3	0	0	---	0.00	29.973 
01:20	53.2	53.2	53.2	69	43.3	0	0	---	0.00	29.973 
01:25	53.1	53.1	53.1	69	43.2	0	0	---	0.00	29.973 
01:30	52.9	52.9	52.9	70	43.4	0	0	---	0.00	29.978 
01:35	52.9	52.9	52.9	70	43.4	0	0	---	0.00	29.978 
01:40	52.9	52.9	52.9	69	43.0	0	0	---	0.00	29.978 
01:45	52.9	52.9	52.9	70	43.4	0	0	---	0.00	29.987 
01:50	52.9	52.9	52.9	70	43.4	0	0	---	0.00	29.987 
01:55	52.9	52.9	52.9	70	43.4	0	0	---	0.00	29.987 
02:00	52.9	52.9	52.9	69	43.0	0	0	---	0.00	29.979 
02:05	52.9	52.9	52.9	70	43.4	0	0	---	0.00	29.979 
02:10	52.8	52.8	52.8	70	43.3	0	0	---	0.00	29.979 
02:15	52.8	52.8	52.8	70	43.3	0	0	---	0.00	29.977 
02:20	52.8	52.8	52.8	70	43.3	0	0	---	0.00	29.977 
02:25	52.8	52.8	52.8	70	43.3	0	0	---	0.00	29.977 
02:30	52.8	52.8	52.8	71	43.7	0	0	---	0.00	29.990 
02:35	52.8	52.8	52.8	71	43.7	0	0	---	0.00	29.990 
02:40	52.8	52.8	52.8	71	43.7	0	0	---	0.00	29.990 
02:45	52.8	52.8	52.8	71	43.7	0	0	---	0.00	29.990 
02:50	52.8	52.8	52.8	72	44.0	0	0	---	0.00	29.990 
02:55	52.8	52.8	52.8	72	44.0	0	0	---	0.00	29.990 
03:00	52.8	52.8	52.8	74	44.7	0	0	---	0.00	29.982 
03:05	52.6	52.6	52.6	74	44.6	0	0	---	0.00	29.982 
03:10	52.5	52.5	52.5	75	44.8	0	0	---	0.00	29.982 
03:15	52.3	52.3	52.3	75	44.6	0	0	---	0.00	29.971 
03:20	52.2	52.2	52.2	73	43.8	0	1	0	0.00	29.971 
03:25	52.2	52.2	52.2	73	43.8	0	1	0	0.00	29.971 
03:30	52.2	52.2	52.2	73	43.8	0	0	---	0.00	29.969 
03:35	52.2	52.2	52.2	73	43.8	0	0	---	0.00	29.969 
03:40	52.2	52.2	52.2	73	43.8	0	0	---	0.00	29.969 
03:45	52.2	52.2	52.2	74	44.2	0	0	---	0.00	29.957 
03:50	52.0	52.0	52.0	74	44.0	0	1	0	0.00	29.957 
03:55	52.0	52.0	52.0	74	44.0	0	1	0	0.00	29.957 
04:00	52.0	52.0	52.0	74	44.0	0	0	---	0.00	29.952 
04:05	52.0	52.0	52.0	74	44.0	0	0	---	0.00	29.952 
04:10	51.9	51.9	51.9	76	44.6	0	0	---	0.00	29.952 
04:15	51.9	51.9	51.9	78	45.3	0	0	---	0.00	29.960 
04:20	51.6	51.6	51.6	79	45.3	0	0	---	0.00	29.960 
04:25	51.3	51.3	51.3	79	45.0	0	0	---	0.00	29.960 
04:30	51.1	51.1	51.1	79	44.8	0	0	---	0.00	29.951 
04:35	51.1	51.1	51.1	79	44.8	0	0	---	0.00	29.951 
04:40	51.0	51.0	51.0	79	44.7	0	0	---	0.00	29.951 
04:45	51.0	51.0	51.0	80	45.0	0	0	---	0.00	29.955 
04:50	51.0	51.0	51.0	80	45.0	0	0	---	0.00	29.955 
04:55	51.0	51.0	51.0	80	45.0	0	0	---	0.00	29.955 
05:00	51.0	51.0	51.0	80	45.0	0	0	---	0.00	29.955 
05:05	51.0	51.0	51.0	81	45.4	0	0	---	0.00	29.955 
05:10	51.0	51.0	51.0	81	45.4	0	1	0	0.00	29.955 
05:15	51.0	51.0	51.0	80	45.0	0	2	0	0.00	29.953 
05:20	51.0	51.0	51.0	80	45.0	0	0	---	0.00	29.953 
05:25	51.0	51.0	51.0	80	45.0	0	0	---	0.00	29.953 
05:30	51.0	51.0	51.0	79	44.7	0	0	---	0.00	29.968 
05:35	51.0	51.0	51.0	79	44.7	0	0	---	0.00	29.968 
05:40	51.0	51.0	51.0	80	45.0	0	0	---	0.00	29.968 
05:45	51.0	51.0	51.0	80	45.0	0	0	---	0.00	29.968 
05:50	51.0	51.0	51.0	80	45.0	0	0	---	0.00	29.968 
05:55	51.0	51.0	51.0	80	45.0	0	0	---	0.00	29.968 
06:00	51.0	51.0	51.0	80	45.0	0	0	---	0.00	29.973 
06:05	51.0	51.0	51.0	80	45.0	0	0	---	0.00	29.973 
06:10	51.0	51.0	51.0	80	45.0	0	0	---	0.00	29.973 
06:15	50.8	50.8	50.8	80	44.9	0	0	---	0.00	29.971 
06:20	50.8	50.8	50.8	80	44.9	0	0	---	0.00	29.971 
06:25	50.8	50.8	50.8	81	45.2	0	1	0	0.00	29.971 
06:30	50.8	50.8	50.8	81	45.2	0	1	0	0.00	29.973 
06:35	50.8	50.8	50.8	81	45.2	0	1	0	0.00	29.973 
06:40	50.8	50.8	50.8	81	45.2	0	2	0	0.00	29.973 
06:45	50.7	50.7	50.7	81	45.1	0	0	---	0.00	29.976 
06:50	50.7	50.7	50.7	81	45.1	0	1	0	0.00	29.976 
06:55	50.7	50.7	50.7	82	45.4	0	1	0	0.00	29.976 
07:00	50.5	50.5	50.5	83	45.5	0	2	0	0.00	29.983 
07:05	50.4	50.4	50.4	84	45.7	0	1	0	0.01	29.983 
07:10	50.4	50.4	50.4	85	46.1	1	3	90	0.00	29.983 
07:15	50.1	50.1	50.1	86	46.1	1	3	90	0.00	29.979 
07:20	49.9	49.9	49.9	87	46.2	1	3	90	0.00	29.979 
07:25	49.6	49.6	49.6	87	45.9	1	3	90	0.00	29.979 
07:30	49.5	49.5	49.5	88	46.1	1	2	90	0.00	29.980 
07:35	49.5	49.5	49.5	88	46.1	1	4	90	0.00	29.980 
07:40	49.4	49.4	49.4	89	46.3	1	3	90	0.00	29.980 
07:45	49.4	49.4	49.4	89	46.3	2	4	90	0.00	29.982 
07:50	49.4	49.4	49.4	89	46.3	1	4	90	0.00	29.982 
07:55	49.4	49.4	49.4	89	46.3	0	3	90	0.00	29.982 
08:00	49.4	49.4	49.4	89	46.3	0	2	90	0.00	29.994 
08:05	49.5	49.5	49.5	89	46.4	1	3	90	0.00	29.994 
08:10	49.5	49.5	49.5	88	46.1	0	3	90	0.00	29.994 
08:15	49.6	49.6	49.6	88	46.2	0	0	---	0.00	30.004 
08:20	49.6	49.6	49.6	89	46.5	0	0	---	0.00	30.004 
08:25	49.8	49.8	49.8	89	46.7	0	0	---	0.00	30.004 
08:30	49.8	49.8	49.8	89	46.7	0	3	90	0.00	30.005 
08:35	49.8	49.8	49.8	89	46.7	1	2	90	0.00	30.005 
08:40	49.8	49.8	49.8	88	46.4	0	2	90	0.00	30.005 
08:45	50.1	50.1	50.1	89	47.0	0	1	90	0.00	29.997 
08:50	50.1	50.1	50.1	88	46.7	0	2	90	0.00	29.997 
08:55	50.1	50.1	50.1	88	46.7	1	2	90	0.00	29.997 
09:00	50.2	50.2	50.2	88	46.8	0	2	90	0.00	29.995 
09:05	50.4	50.4	50.4	88	47.0	0	2	90	0.00	29.995 
09:10	50.5	50.5	50.5	88	47.1	0	3	90	0.00	29.995 
09:15	50.7	50.7	50.7	88	47.3	0	2	90	0.00	29.996 
09:20	50.8	50.8	50.8	88	47.4	0	2	90	0.00	29.996 
09:25	50.8	50.8	50.8	88	47.4	0	3	90	0.00	29.996 
09:30	51.0	51.0	51.0	88	47.6	0	1	90	0.00	30.001 
09:35	51.0	51.0	51.0	88	47.6	0	1	90	0.00	30.001 
09:40	51.1	51.1	51.1	88	47.7	0	2	90	0.00	30.001 
09:45	51.1	51.1	51.1	88	47.7	0	2	90	0.00	30.008 
09:50	51.3	51.3	51.3	88	47.9	0	1	90	0.00	30.008 
09:55	51.3	51.3	51.3	88	47.9	0	2	90	0.00	30.008 
10:00	51.4	51.4	51.4	88	48.0	0	1	90	0.00	30.008 
10:05	51.7	51.7	51.7	88	48.3	0	2	90	0.00	30.008 
10:10	51.9	51.9	51.9	88	48.5	0	2	90	0.00	30.008 
10:15	51.9	51.9	51.9	88	48.5	0	2	90	0.00	30.007 
10:20	52.0	52.0	52.0	88	48.6	0	2	90	0.00	30.007 
10:25	52.2	52.2	52.2	88	48.8	0	1	90	0.00	30.007 
10:30	52.2	52.2	52.2	87	48.4	0	0	---	0.00	30.015 
10:35	52.5	52.5	52.5	87	48.7	0	2	90	0.00	30.015 
10:40	52.5	52.5	52.5	87	48.7	0	2	90	0.00	30.015 
10:45	52.5	52.5	52.5	87	48.7	0	1	90	0.00	30.015 
10:50	52.8	52.8	52.8	87	49.0	0	2	90	0.00	30.015 
10:55	52.9	52.9	52.9	87	49.1	0	2	90	0.00	30.015 
11:00	53.1	53.1	53.1	87	49.3	0	2	90	0.00	30.014 
11:05	53.3	53.3	53.3	86	49.2	0	2	90	0.00	30.014 
11:10	53.6	53.6	53.6	87	49.8	0	2	90	0.00	30.014 
11:15	53.6	53.6	53.6	86	49.5	0	2	90	0.00	30.023 
11:20	53.8	53.8	53.8	85	49.4	0	2	90	0.00	30.023 
11:25	53.9	53.9	53.9	85	49.5	0	1	90	0.01	30.023 
11:30	54.1	54.1	54.1	85	49.7	0	1	90	0.00	30.027 
11:35	54.4	54.4	54.4	84	49.7	0	1	90	0.00	30.027 
11:40	54.7	54.7	54.7	84	50.0	0	0	---	0.00	30.027 
11:45	55.1	55.1	55.1	84	50.4	0	1	90	0.00	30.016 
11:50	55.4	55.4	55.4	83	50.3	0	2	90	0.00	30.016 
11:55	55.9	55.9	55.9	83	50.8	0	1	90	0.00	30.016 
12:00	56.0	56.0	56.0	82	50.6	0	1	90	0.00	30.006 
12:05	56.5	56.5	56.5	81	50.7	0	3	90	0.00	30.006 
12:10	56.9	56.9	56.9	79	50.5	1	3	90	0.00	30.006 
12:15	57.3	57.3	57.3	77	50.1	0	4	90	0.00	30.000 
12:20	58.1	58.1	58.1	78	51.3	0	2	90	0.00	30.000 
12:25	58.3	58.3	58.3	76	50.8	0	3	90	0.00	30.000 
12:30	58.6	58.6	58.6	75	50.7	1	4	90	0.00	29.997 
12:35	58.6	58.6	58.6	75	50.7	1	3	90	0.00	29.997 
12:40	58.7	58.7	58.7	74	50.4	0	2	90	0.00	29.997 
12:45	59.0	59.0	59.0	72	50.0	0	3	90	0.00	30.002 
12:50	59.3	59.3	59.3	71	49.9	1	4	90	0.00	30.002 
12:55	59.8	59.8	59.8	70	50.0	0	1	90	0.00	30.002 
13:00	60.1	60.1	60.1	71	50.7	0	3	90	0.00	30.001 
13:05	60.1	60.1	60.1	67	49.1	1	3	68	0.00	30.001 
13:10	60.4	60.4	60.4	69	50.2	0	1	68	0.00	30.001 
13:15	60.5	60.5	60.5	67	49.5	0	1	68	0.00	29.998 
13:20	60.5	60.5	60.5	66	49.1	1	3	338	0.00	29.998 
13:25	60.7	60.7	60.7	67	49.7	1	2	22	0.00	29.998 
13:30	60.9	60.9	60.9	68	50.3	0	1	22	0.00	29.997 
13:35	60.7	60.7	60.7	67	49.7	0	3	22	0.00	29.997 
13:40	61.0	61.0	61.0	68	50.4	1	4	22	0.00	29.997 
13:45	61.3	61.3	61.3	65	49.4	0	3	45	0.00	29.994 
13:50	62.0	62.0	62.0	65	50.1	0	3	45	0.00	29.994 
13:55	62.1	62.1	62.1	62	48.9	0	2	45	0.00	29.994 
14:00	62.1	62.1	62.1	64	49.8	0	3	45	0.00	29.999 
14:05	62.6	62.6	62.6	65	50.7	0	1	45	0.00	29.999 
14:10	62.4	62.4	62.4	59	47.9	0	3	45	0.00	29.999 
14:15	62.6	62.6	62.6	61	49.0	0	2	45	0.00	29.999 
14:20	62.9	62.9	62.9	63	50.1	1	3	45	0.00	29.999 
14:25	63.1	63.1	63.1	62	49.9	0	2	68	0.00	29.999 
14:30	62.7	62.7	62.7	60	48.6	0	2	68	0.00	30.000 
14:35	62.7	62.7	62.7	59	48.2	0	3	68	0.00	30.000 
14:40	62.7	62.7	62.7	58	47.7	0	2	68	0.00	30.000 
14:45	62.7	62.7	62.7	58	47.7	0	2	68	0.00	29.999 
14:50	62.9	62.9	62.9	57	47.4	0	2	68	0.00	29.999 
14:55	63.1	63.1	63.1	56	47.1	0	1	315	0.00	29.999 
15:00	62.9	62.9	62.9	58	47.9	0	2	315	0.00	29.999 
15:05	63.2	63.2	63.2	59	48.6	0	3	315	0.00	29.999 
15:10	63.7	63.7	63.7	58	48.6	0	2	0	0.00	29.999 
15:15	64.2	64.2	64.2	60	50.0	1	3	112	0.00	29.993 
15:20	64.3	64.3	64.3	58	49.2	1	4	112	0.00	29.993 
15:25	64.0	64.0	64.0	59	49.4	2	4	112	0.00	29.993 
15:30	63.9	63.9	63.9	59	49.3	1	3	112	0.00	29.992 
15:35	64.2	64.2	64.2	59	49.6	2	4	112	0.00	29.992 
15:40	64.2	64.2	64.2	59	49.6	1	4	90	0.00	29.992 
15:45	64.2	64.2	64.2	57	48.6	1	3	90	0.00	29.992 
15:50	64.0	64.0	64.0	56	48.0	1	4	90	0.00	29.992 
15:55	63.7	63.7	63.7	57	48.2	1	4	90	0.00	29.992 
16:00	63.7	63.7	63.7	58	48.6	1	4	90	0.00	29.987 
16:05	63.9	63.9	63.9	58	48.8	0	3	90	0.00	29.987 
16:10	63.9	63.9	63.9	58	48.8	0	2	90	0.00	29.987 
16:15	63.9	63.9	63.9	57	48.4	0	2	90	0.00	29.989 
16:20	63.9	63.9	63.9	56	47.9	0	1	90	0.00	29.989 
16:25	63.9	63.9	63.9	56	47.9	0	2	90	0.00	29.989 
16:30	64.2	64.2	64.2	58	49.1	0	0	---	0.00	29.981 
16:35	64.2	64.2	64.2	58	49.1	0	1	90	0.00	29.981 
16:40	64.3	64.3	64.3	57	48.7	0	1	90	0.00	29.981 
16:45	64.3	64.3	64.3	56	48.3	0	1	90	0.00	29.991 
16:50	64.2	64.2	64.2	56	48.2	0	1	90	0.00	29.991 
16:55	64.0	64.0	64.0	56	48.0	0	1	90	0.00	29.991 
17:00	63.9	63.9	63.9	57	48.4	0	0	---	0.00	29.982 
17:05	63.9	63.9	63.9	56	47.9	0	1	90	0.00	29.982 
17:10	63.7	63.7	63.7	56	47.7	0	2	90	0.00	29.982 
17:15	63.7	63.7	63.7	58	48.6	0	0	---	0.00	29.981 
17:20	63.7	63.7	63.7	57	48.2	0	2	90	0.00	29.981 
17:25	63.5	63.5	63.5	58	48.5	0	2	90	0.00	29.981 
17:30	63.5	63.5	63.5	59	48.9	0	1	90	0.00	29.978 
17:35	63.4	63.4	63.4	59	48.8	0	2	90	0.00	29.978 
17:40	63.2	63.2	63.2	60	49.1	0	0	---	0.00	29.978 
17:45	63.2	63.2	63.2	59	48.6	0	1	90	0.00	29.979 
17:50	63.2	63.2	63.2	59	48.6	1	3	90	0.00	29.979 
17:55	63.1	63.1	63.1	59	48.5	0	2	90	0.00	29.979 
18:00	62.9	62.9	62.9	60	48.8	0	2	90	0.00	29.985 
18:05	62.9	62.9	62.9	59	48.3	0	2	90	0.00	29.985 
18:10	62.7	62.7	62.7	60	48.6	0	1	90	0.00	29.985 
18:15	62.7	62.7	62.7	61	49.1	0	2	90	0.00	29.989 
18:20	62.7	62.7	62.7	61	49.1	0	2	90	0.00	29.989 
18:25	62.7	62.7	62.7	62	49.5	1	2	90	0.00	29.989 
18:30	62.6	62.6	62.6	62	49.4	0	1	90	0.00	29.988 
18:35	62.6	62.6	62.6	60	48.5	0	1	90	0.00	29.988 
18:40	62.6	62.6	62.6	61	49.0	0	1	90	0.00	29.988 
18:45	62.7	62.7	62.7	61	49.1	0	1	90	0.00	29.989 
18:50	62.7	62.7	62.7	61	49.1	0	1	90	0.00	29.989 
18:55	62.7	62.7	62.7	62	49.5	0	1	90	0.00	29.989 
19:00	62.6	62.6	62.6	63	49.8	1	3	90	0.00	29.991 
19:05	62.4	62.4	62.4	62	49.2	0	2	90	0.00	29.991 
19:10	62.4	62.4	62.4	63	49.6	0	2	90	0.00	29.991 
19:15	62.3	62.3	62.3	63	49.5	0	1	90	0.00	29.997 
19:20	62.3	62.3	62.3	64	50.0	0	1	90	0.00	29.997 
19:25	62.1	62.1	62.1	65	50.2	0	1	90	0.00	29.997 
19:30	62.0	62.0	62.0	65	50.1	0	2	90	0.00	29.995 
19:35	61.8	61.8	61.8	66	50.3	0	1	90	0.00	29.995 
19:40	61.6	61.6	61.6	68	50.9	0	1	90	0.00	29.995 
19:45	61.3	61.3	61.3	68	50.6	0	1	90	0.00	29.995 
19:50	61.0	61.0	61.0	68	50.4	1	5	90	0.00	29.995 
19:55	60.9	60.9	60.9	69	50.7	0	2	90	0.00	29.995 
20:00	60.7	60.7	60.7	69	50.5	0	2	90	0.00	29.991 
20:05	60.5	60.5	60.5	69	50.3	1	2	90	0.00	29.991 
20:10	60.4	60.4	60.4	70	50.6	0	2	90	0.00	29.991 
20:15	60.2	60.2	60.2	70	50.4	0	2	90	0.00	29.982 
20:20	60.1	60.1	60.1	71	50.7	0	1	90	0.00	29.982 
20:25	59.8	59.8	59.8	71	50.4	0	2	90	0.00	29.982 
20:30	59.6	59.6	59.6	72	50.6	0	2	90	0.00	29.981 
20:35	59.5	59.5	59.5	73	50.8	1	3	90	0.00	29.981 
20:40	59.3	59.3	59.3	73	50.6	1	2	112	0.00	29.981 
20:45	59.2	59.2	59.2	73	50.5	1	3	112	0.00	29.985 
20:50	59.0	59.0	59.0	74	50.7	0	1	112	0.00	29.985 
20:55	59.0	59.0	59.0	74	50.7	0	1	112	0.00	29.985 
21:00	58.9	58.9	58.9	74	50.6	0	3	112	0.00	29.995 
21:05	58.9	58.9	58.9	75	51.0	0	1	112	0.00	29.995 
21:10	58.7	58.7	58.7	76	51.2	0	2	112	0.00	29.995 
21:15	58.7	58.7	58.7	76	51.2	0	3	112	0.00	29.996 
21:20	58.6	58.6	58.6	77	51.4	0	2	112	0.00	29.996 
21:25	58.4	58.4	58.4	77	51.2	0	2	112	0.00	29.996 
21:30	58.4	58.4	58.4	77	51.2	0	1	112	0.00	29.998 
21:35	58.3	58.3	58.3	78	51.5	0	1	112	0.00	29.998 
21:40	58.1	58.1	58.1	78	51.3	0	1	112	0.00	29.998 
21:45	57.8	57.8	57.8	79	51.3	0	1	112	0.00	29.998 
21:50	57.6	57.6	57.6	80	51.5	0	0	---	0.00	29.998 
21:55	57.3	57.3	57.3	81	51.5	0	1	112	0.00	29.998 
22:00	57.2	57.2	57.2	81	51.4	0	1	112	0.00	30.010 
22:05	57.0	57.0	57.0	81	51.2	0	0	---	0.00	30.010 
22:10	57.0	57.0	57.0	82	51.6	0	1	112	0.00	30.010 
22:15	56.9	56.9	56.9	82	51.5	0	1	112	0.00	30.010 
22:20	56.7	56.7	56.7	83	51.6	0	0	---	0.00	30.010 
22:25	56.7	56.7	56.7	83	51.6	0	1	112	0.00	30.010 
22:30	56.6	56.6	56.6	83	51.5	0	1	112	0.00	30.012 
22:35	56.6	56.6	56.6	84	51.8	0	1	112	0.00	30.012 
22:40	56.6	56.6	56.6	84	51.8	0	1	112	0.00	30.012 
22:45	56.6	56.6	56.6	85	52.1	0	1	112	0.00	30.020 
22:50	56.6	56.6	56.6	85	52.1	0	1	112	0.00	30.020 
22:55	56.6	56.6	56.6	86	52.5	0	2	112	0.00	30.020 
23:00	56.6	56.6	56.6	86	52.5	0	2	112	0.00	30.020 
23:05	56.6	56.6	56.6	87	52.8	0	3	112	0.00	30.020 
23:10	56.6	56.6	56.6	87	52.8	0	3	112	0.00	30.020 
23:15	56.6	56.6	56.6	87	52.8	0	2	112	0.00	30.018 
23:20	56.6	56.6	56.6	87	52.8	0	1	112	0.00	30.018 
23:25	56.5	56.5	56.5	88	53.0	0	1	112	0.00	30.018 
23:30	56.5	56.5	56.5	88	53.0	0	2	112	0.00	30.009 
23:35	56.5	56.5	56.5	88	53.0	0	1	112	0.00	30.009 
23:40	56.3	56.3	56.3	88	52.8	0	0	---	0.00	30.009 
23:45	56.2	56.2	56.2	88	52.7	0	0	---	0.00	30.010 
23:50	56.0	56.0	56.0	89	52.8	0	1	112	0.00	30.010 
23:55	55.9	55.9	55.9	89	52.7	0	0	---	0.00	30.010 

CoCoRaHS
IN-AL-39
A2 Web Hosting
Creative Commons License
GoDaddy
search engine by freefind advanced

loaded 2018-11-21 01:13:38 • last modified 2010-11-18 10:43:29
Privacy PolicyDisclaimer
• wx.awcolley.com is powered by PmWiki v.2002016 •
• all content (unless otherwise noted) © 2018 A W Colley